Date,TemperatureHighF,TemperatureAvgF,TemperatureLowF,DewpointHighF,DewpointAvgF,DewpointLowF,HumidityHigh,HumidityAvg,HumidityLow,PressureMaxIn,PressureMinIn,WindSpeedMaxMPH,WindSpeedAvgMPH,GustSpeedMaxMPH,PrecipitationSumIn
2013-1-14,32.0,31.6,30.9,31.0,29.5,28.0,93,90,87,30.25,30.16,6,1,6,0.00
2013-1-15,34.7,30.1,24.6,31.0,27.2,24.0,94,88,70,30.27,30.03,4,1,4,0.00
2013-1-16,33.7,31.7,29.6,33.0,30.5,29.0,95,95,94,30.03,29.81,4,0,4,0.00
2013-1-17,33.5,30.7,29.1,32.0,29.5,28.0,95,94,89,30.08,29.91,6,1,6,0.01
2013-1-18,29.9,21.1,13.9,29.0,16.5,11.0,94,80,57,30.35,30.01,12,2,12,0.00
2013-1-19,50.2,33.0,13.4,29.0,21.6,11.0,94,67,33,30.19,29.80,7,1,7,0.01
2013-1-20,43.7,33.8,19.5,35.0,23.8,14.0,84,66,48,30.02,29.73,14,2,14,0.00
2013-1-21,24.4,18.9,7.9,23.0,16.6,4.0,93,90,81,29.91,29.79,6,1,6,0.00
2013-1-22,10.6,6.4,2.8,8.0,4.5,0.0,92,86,62,30.09,29.87,10,1,10,0.00
2013-1-23,12.6,6.7,0.8,11.0,5.5,4.0,92,84,66,32.21,20.78,7,0,7,0.02
2013-1-27,30.7,27.8,22.9,24.0,21.3,18.0,94,74,63,31.92,18.28,3,0,3,0.00
2013-1-28,47.1,42.5,18.4,46.0,41.2,-40.0,97,96,95,30.24,26.32,5,1,5,0.35
2013-1-29,54.3,45.8,35.9,53.5,44.9,35.0,97,97,95,30.05,29.87,3,0,3,0.00
2013-1-30,56.3,45.1,34.2,55.0,44.1,33.0,97,96,95,29.87,29.30,6,0,6,0.02
2013-1-31,48.9,27.1,19.8,48.0,24.8,16.0,97,91,68,31.37,29.25,12,1,12,0.00
2013-2-1,20.4,19.9,19.5,18.0,18.0,18.0,93,93,93,65506.00,40.00,2,0,2,0.00
2013-2-2,22.5,20.9,16.7,21.0,18.8,14.0,93,92,83,65506.00,29.85,5,0,5,0.57
2013-2-3,27.8,21.3,15.7,24.0,19.3,14.0,94,92,83,29.86,29.70,7,0,10,0.00
2013-2-4,26.8,19.4,13.1,24.0,16.9,11.0,93,90,77,29.92,29.76,6,0,6,0.00
2013-2-5,32.0,28.0,23.9,31.0,26.5,23.0,95,94,93,29.85,29.74,5,0,6,0.00
2013-2-6,30.3,23.3,6.9,28.0,21.2,8.0,94,91,72,30.21,29.84,7,0,9,0.00
2013-2-7,36.6,21.8,5.5,29.0,19.7,8.0,93,87,72,30.22,30.01,6,1,7,0.00
2013-2-8,35.2,29.7,21.3,33.0,28.2,18.0,95,94,91,30.01,29.73,9,0,11,0.00
2013-2-9,27.9,19.0,5.9,23.0,16.4,8.0,93,88,72,30.25,29.97,7,0,8,0.01
2013-2-10,41.1,21.4,-2.1,28.0,15.4,0.0,93,75,45,30.25,30.01,6,0,7,0.00
2013-2-11,57.9,41.0,32.6,47.5,34.1,26.0,97,79,37,30.01,29.67,16,1,16,0.10
2013-2-12,35.2,30.2,19.3,32.0,27.3,18.0,95,88,79,29.99,29.86,0,0,0,0.00
2013-2-13,38.6,28.0,16.3,38.0,26.9,14.0,96,94,93,29.89,29.66,0,0,0,0.00
2013-2-14,33.3,31.8,29.4,32.0,30.6,28.0,95,95,94,29.91,29.77,0,0,0,0.00
2013-2-15,37.7,32.9,28.8,33.0,31.1,28.0,95,93,77,29.98,29.87,0,0,0,0.00
2013-2-16,31.2,27.9,21.5,29.0,25.8,14.0,94,90,70,29.96,29.81,0,0,0,0.00
2013-2-17,22.4,18.1,13.5,21.0,15.6,8.0,93,88,70,30.12,29.81,0,0,0,0.00
2013-2-18,31.0,23.0,14.8,29.0,20.5,4.0,94,88,61,30.20,29.94,0,0,0,0.00
2013-2-19,33.4,28.5,21.6,32.0,27.2,18.0,95,94,87,29.94,29.61,0,0,0,0.00
2013-2-20,27.4,23.7,19.7,26.0,20.4,16.0,93,85,71,30.07,29.80,0,0,0,0.00
2013-2-21,30.8,26.2,21.1,28.0,22.5,14.0,94,84,65,30.25,30.04,0,0,0,0.00
2013-2-22,30.3,27.2,20.9,29.0,25.9,14.0,94,93,71,30.21,30.02,0,0,0,0.00
2013-2-23,33.2,31.8,29.8,32.0,30.8,29.0,95,95,94,30.02,29.80,0,0,0,0.00
2013-2-24,32.4,29.1,25.9,31.0,27.9,24.0,95,94,94,30.04,29.80,0,0,0,0.00
2013-2-25,33.2,28.1,22.2,32.0,26.8,21.0,95,94,89,30.14,30.04,0,0,0,0.00
2013-2-26,34.9,30.1,21.7,33.0,28.9,21.0,95,94,93,30.06,29.63,13,1,13,0.01
2013-2-27,40.6,35.1,32.5,40.0,34.1,32.0,96,95,95,29.65,29.56,16,0,16,0.05
2013-2-28,33.2,31.8,30.6,32.0,30.6,29.0,95,95,94,29.71,29.58,7,1,8,0.00
2013-3-1,31.9,28.5,24.1,31.0,27.2,23.0,95,94,93,29.87,29.71,8,2,8,0.01
2013-3-2,25.8,23.1,21.6,24.0,21.8,21.0,93,92,82,29.86,29.80,6,2,6,0.00
2013-3-3,26.8,22.5,19.4,26.0,21.1,18.0,94,93,90,29.89,29.79,11,2,12,0.01
2013-3-4,30.7,21.3,9.9,24.0,19.0,8.0,93,89,72,29.99,29.88,12,1,12,0.00
2013-3-5,46.2,25.3,1.7,31.0,16.2,4.0,94,70,17,30.00,29.71,11,1,11,0.00
2013-3-6,39.2,34.0,29.3,35.0,30.8,28.0,95,88,77,30.04,29.68,12,1,12,0.00
2013-3-7,37.9,33.9,30.9,35.0,31.9,29.0,95,92,81,30.18,30.03,10,2,12,0.00
2013-3-8,40.9,31.7,22.5,33.0,28.6,21.0,95,88,65,30.31,30.15,11,2,11,0.00
2013-3-9,54.9,31.7,14.8,33.0,24.5,14.0,95,78,33,30.34,30.20,6,0,6,0.00
2013-3-10,59.1,42.1,23.7,40.0,30.3,23.0,95,67,35,30.23,30.09,4,0,9,0.00
2013-3-11,54.5,45.6,36.2,48.0,36.9,31.0,97,73,45,30.09,29.81,11,1,12,0.00
2013-3-12,49.4,38.5,34.0,48.0,37.0,31.0,97,94,85,29.94,29.79,9,1,9,0.01
2013-3-13,35.4,29.9,23.2,33.0,28.5,21.0,95,93,80,30.00,29.86,14,2,14,0.00
2013-3-14,34.6,26.5,21.5,24.0,21.7,18.0,94,80,58,30.08,29.98,14,3,17,0.00
2013-3-15,45.3,33.2,15.7,38.0,28.0,14.0,96,81,65,30.04,29.79,14,1,16,0.00
2013-3-16,37.2,33.8,32.1,36.0,32.7,31.0,95,95,95,29.90,29.64,6,0,6,0.01
2013-3-17,34.6,30.2,24.6,31.0,26.9,24.0,95,87,72,30.15,29.89,6,1,6,0.00
2013-3-18,31.4,28.4,23.3,29.0,26.7,21.0,95,92,79,30.14,29.77,9,2,9,0.00
2013-3-19,43.8,34.3,27.8,35.0,28.0,18.0,95,78,41,29.89,29.69,21,2,21,0.00
2013-3-20,36.7,29.6,23.5,28.0,22.4,18.0,90,73,54,29.89,29.76,14,2,15,0.01
2013-3-21,24.5,21.3,15.9,21.0,16.7,11.0,93,81,59,29.80,29.74,14,2,14,0.00
2013-3-22,30.2,24.9,19.1,26.0,22.2,18.0,94,89,74,29.94,29.77,11,2,11,0.00
2013-3-23,43.8,29.6,21.2,31.0,24.5,18.0,94,81,54,29.98,29.91,11,1,12,0.01
2013-3-24,38.8,29.7,16.9,31.0,23.7,16.0,94,79,60,29.95,29.55,9,1,9,0.00
2013-3-25,39.2,32.3,28.9,38.0,31.0,28.0,95,94,89,29.67,29.47,7,1,7,0.00
2013-3-26,40.8,33.1,27.4,37.0,31.5,26.0,95,93,75,29.99,29.67,12,1,12,0.00
2013-3-27,39.1,33.4,30.6,33.0,30.9,29.0,95,90,70,30.08,29.97,11,2,11,0.02
2013-3-28,38.3,33.9,31.8,37.0,32.7,31.0,95,95,88,30.19,30.03,10,2,10,0.01
2013-3-29,46.9,36.8,28.6,39.0,32.0,26.0,95,83,55,30.22,30.13,7,1,7,0.00
2013-3-30,52.3,36.7,20.5,32.0,25.7,18.0,95,69,35,30.23,30.03,7,1,7,0.00
2013-3-31,43.6,35.6,25.7,43.0,34.4,24.0,96,95,87,30.03,29.73,3,0,3,0.00
2013-4-1,44.2,37.7,26.5,43.0,31.8,16.0,96,80,45,29.93,29.70,14,2,14,0.00
2013-4-2,36.8,29.4,23.4,23.0,19.6,14.0,93,65,46,30.10,29.93,14,2,14,0.00
2013-4-3,36.7,26.5,16.9,29.0,18.0,11.0,94,71,43,30.32,30.08,18,2,18,0.00
2013-4-4,49.3,31.3,11.3,29.0,17.4,11.0,93,63,24,30.30,29.96,11,1,11,0.00
2013-4-5,54.6,38.1,20.7,36.0,27.4,18.0,95,68,37,30.09,29.89,20,1,20,0.12
2013-4-6,54.8,38.4,18.6,42.0,23.2,16.0,96,61,24,30.28,30.09,9,1,10,0.02
2013-4-7,68.1,53.2,35.4,51.0,39.0,24.0,97,60,39,30.12,29.97,11,1,12,0.00
2013-4-8,73.2,57.1,39.3,56.0,46.7,38.0,97,72,39,30.13,30.01,7,0,9,0.00
2013-4-9,78.5,66.0,51.6,57.5,54.1,49.0,97,68,44,30.21,29.97,9,1,11,0.00
2013-4-10,80.2,66.2,50.5,67.0,59.9,50.0,99,82,53,30.07,29.91,12,1,19,0.09
2013-4-11,75.8,61.3,49.2,64.0,56.6,48.0,98,86,58,29.97,29.77,13,1,13,0.01
2013-4-12,68.3,55.7,43.7,64.0,51.2,37.0,98,85,58,29.86,29.66,12,2,13,0.00
2013-4-13,55.3,43.5,30.9,40.0,36.6,29.0,95,78,50,29.97,29.85,12,1,12,0.00
2013-4-14,62.3,46.7,28.7,47.0,35.5,28.0,97,68,38,30.18,29.96,9,1,11,0.00
2013-4-15,65.3,56.0,46.1,54.0,48.9,43.0,97,78,57,30.22,30.08,14,1,14,0.00
2013-4-16,77.5,64.1,55.5,62.5,57.3,53.5,98,81,52,30.27,30.15,9,1,9,0.04
2013-4-17,67.3,58.0,50.9,62.0,55.9,50.5,98,93,72,30.30,30.19,5,0,6,0.01
2013-4-18,72.0,64.5,58.9,65.0,60.2,54.5,98,87,72,30.24,29.95,7,2,13,0.00
2013-4-19,71.3,57.5,42.8,66.7,54.5,36.0,99,90,73,29.95,29.63,14,1,14,0.00
2013-4-20,47.5,39.4,28.9,37.0,31.9,26.0,95,75,51,30.33,29.85,11,1,12,0.00
2013-4-21,53.7,37.9,20.2,33.0,24.6,18.0,95,63,30,30.56,30.33,9,1,9,0.00
2013-4-22,56.4,45.4,32.4,37.0,30.6,24.0,95,59,30,30.50,30.32,14,2,14,0.00
2013-4-23,69.4,49.2,26.9,54.5,37.7,26.0,96,69,31,30.32,30.05,9,1,9,0.00
2013-4-24,75.7,49.7,34.4,61.0,45.4,33.0,98,87,49,30.11,29.85,16,1,16,0.03
2013-4-25,58.6,45.6,35.1,53.0,34.0,26.0,96,68,31,30.34,30.11,9,1,9,0.01
2013-4-26,61.3,46.1,29.6,57.5,37.9,29.0,98,77,30,30.49,30.32,8,1,8,0.00
2013-4-27,69.6,50.2,26.7,62.0,37.3,26.0,98,68,29,30.42,30.23,11,1,11,0.00
2013-4-28,58.4,47.4,35.2,51.0,45.2,33.0,97,92,66,30.24,30.07,9,1,9,0.00
2013-4-29,57.7,53.2,48.9,56.5,52.3,48.0,97,96,91,30.13,30.03,9,1,9,0.00
2013-4-30,62.5,56.4,51.2,56.0,53.5,50.5,97,91,75,30.32,30.12,9,1,9,0.00
2013-5-1,71.3,58.5,43.2,54.5,42.2,31.0,97,61,27,30.44,30.31,12,1,12,0.00
2013-5-2,72.5,56.0,37.8,49.0,40.0,32.0,97,62,24,30.46,30.30,12,1,12,0.00
2013-5-3,68.2,53.9,36.1,50.5,42.1,32.0,97,69,33,30.39,30.25,12,2,14,0.00
2013-5-4,67.8,54.4,38.5,49.0,44.4,37.0,97,71,44,30.29,30.19,14,2,14,0.00
2013-5-5,69.8,53.0,33.7,47.5,36.2,26.0,97,61,20,30.21,30.13,14,2,16,0.00
2013-5-6,64.6,52.9,33.8,57.5,48.3,33.0,97,85,64,30.18,30.09,12,2,12,0.00
2013-5-7,65.3,58.3,53.5,60.0,56.2,53.0,98,93,68,30.11,30.02,12,2,12,0.00
2013-5-8,72.3,58.0,49.1,62.0,53.2,47.0,98,86,47,30.07,29.97,10,1,10,0.26
2013-5-9,69.1,56.4,48.5,65.0,54.3,48.0,98,93,67,30.05,29.93,5,0,5,0.01
2013-5-10,74.4,57.1,43.9,69.7,55.5,43.0,99,95,70,30.07,29.90,11,0,14,0.05
2013-5-11,60.4,56.1,50.7,60.0,55.4,50.0,98,97,97,29.90,29.84,6,0,6,0.01
2013-5-12,52.6,45.6,34.1,50.5,37.6,29.0,97,75,47,29.99,29.82,11,1,14,0.00
2013-5-13,51.1,40.2,27.8,38.0,31.6,26.0,96,73,47,30.12,29.98,9,1,9,0.00
2013-5-14,59.9,42.4,23.5,47.0,34.5,21.0,97,77,42,30.18,29.99,7,0,7,0.00
2013-5-15,84.1,63.1,42.4,68.5,55.5,41.0,98,79,48,29.99,29.83,12,1,12,0.03
2013-5-16,78.5,64.4,52.8,66.7,58.7,50.0,99,84,39,30.03,29.85,9,1,9,0.00
2013-5-17,80.3,62.7,47.2,64.5,54.8,46.0,98,79,41,30.21,30.03,5,0,6,0.00
2013-5-18,76.5,60.9,45.4,64.0,55.5,44.0,98,84,58,30.24,30.16,10,1,11,0.00
2013-5-19,66.3,61.4,56.9,63.0,60.1,56.5,98,95,87,30.22,30.13,6,1,6,0.00
2013-5-20,83.7,69.9,58.5,71.3,64.5,58.0,99,84,55,30.18,30.06,6,0,6,0.01
2013-5-21,87.8,71.6,56.8,72.7,64.2,56.5,99,80,45,30.10,29.96,8,0,8,0.00
2013-5-22,86.7,68.2,59.6,70.0,62.9,59.0,98,86,44,29.99,29.91,9,0,10,0.08
2013-5-23,77.9,64.6,57.5,70.0,61.1,57.0,99,90,54,29.95,29.84,7,0,8,0.05
2013-5-24,57.7,44.9,39.9,57.0,41.6,33.0,97,88,70,30.20,29.87,11,1,11,0.01
2013-5-25,61.1,47.0,36.9,44.0,38.0,35.0,96,74,41,30.25,30.17,12,1,12,0.00
2013-5-26,67.4,49.0,29.3,44.0,37.4,28.0,96,69,35,30.27,30.16,14,1,14,0.00
2013-5-27,65.9,50.5,29.8,54.5,42.7,29.0,97,78,38,30.32,30.16,6,0,6,0.01
2013-5-28,70.7,58.1,50.2,69.7,57.5,49.0,99,97,86,30.18,30.08,7,0,7,0.12
2013-5-29,85.2,67.2,51.1,70.0,59.3,50.5,99,79,43,30.21,30.07,8,0,8,0.00
2013-5-30,88.8,69.8,51.3,69.0,61.4,50.5,99,78,40,30.31,30.16,5,0,5,0.00
2013-5-31,89.3,71.5,53.5,72.0,62.2,53.0,99,76,42,30.25,30.08,6,0,6,0.00
2013-6-1,85.4,69.1,58.9,71.7,63.7,58.0,99,85,49,30.12,29.93,6,0,6,0.04
2013-6-2,80.4,67.8,59.4,68.5,62.8,59.0,99,86,51,29.96,29.88,7,0,9,0.01
2013-6-3,69.3,61.3,50.5,64.0,57.8,43.0,98,89,69,30.05,29.92,5,0,5,0.02
2013-6-4,74.4,55.6,34.8,59.5,46.1,33.0,97,74,40,30.19,30.05,11,0,11,0.00
2013-6-5,76.7,60.9,41.0,60.0,51.6,40.0,98,75,44,30.20,30.04,9,1,9,0.00
2013-6-6,62.7,60.0,58.5,60.5,59.3,58.0,98,97,91,30.05,29.87,5,0,5,0.20
2013-6-7,69.4,63.3,59.9,69.0,62.8,59.5,99,98,95,29.87,29.77,6,0,6,0.01
2013-6-8,68.8,58.9,50.8,60.5,56.3,50.0,98,92,68,30.14,29.85,4,0,5,0.00
2013-6-9,79.8,64.8,47.5,66.3,58.5,47.0,99,82,51,30.24,30.13,9,0,9,0.00
2013-6-10,74.4,66.3,58.6,71.7,65.6,58.0,99,98,86,30.13,29.86,5,0,5,0.10
2013-6-11,75.3,65.2,58.6,69.0,63.3,58.0,99,94,72,29.95,29.83,6,0,6,0.00
2013-6-12,80.6,68.5,57.7,70.0,64.5,57.0,99,88,61,29.99,29.85,5,0,6,0.05
2013-6-13,72.8,64.8,58.0,67.5,62.8,56.0,99,93,81,29.86,29.61,12,1,12,0.07
2013-6-14,74.3,62.1,54.2,61.5,56.8,53.5,98,84,55,30.06,29.78,7,1,7,0.00
2013-6-15,77.5,61.7,46.6,61.0,51.1,43.0,98,73,32,30.17,30.03,6,0,6,0.00
2013-6-16,70.9,62.7,54.7,68.5,61.8,54.0,99,97,82,30.07,29.95,6,0,6,0.09
2013-6-17,82.6,70.6,59.9,69.3,63.4,57.0,99,81,43,30.05,29.98,9,0,9,0.03
2013-6-18,76.8,66.2,56.9,70.0,63.2,56.5,99,90,67,29.99,29.91,5,0,5,0.00
2013-6-19,77.8,63.5,49.6,61.0,54.4,46.0,98,76,35,30.17,29.98,7,0,7,0.00
2013-6-20,83.1,64.2,45.4,65.5,56.0,44.0,98,78,43,30.29,30.17,6,0,6,0.00
2013-6-21,85.7,68.2,51.4,69.7,59.1,50.5,99,77,35,30.33,30.23,5,0,6,0.00
2013-6-22,88.1,71.1,53.3,71.0,63.6,52.0,99,80,44,30.30,30.17,7,0,7,0.00
2013-6-23,90.1,79.5,62.7,72.3,67.6,62.0,99,69,44,30.25,30.15,4,0,6,0.00
2013-6-24,88.1,73.6,57.9,72.3,65.0,57.5,99,78,45,30.24,30.11,6,0,6,0.00
2013-6-25,87.8,76.9,62.1,71.3,66.4,61.5,98,73,53,30.13,29.99,16,1,16,0.00
2013-6-26,80.8,69.6,62.8,74.0,67.0,62.5,99,92,66,30.07,29.92,5,0,6,0.00
2013-6-27,71.4,66.4,60.4,71.0,65.9,60.0,99,99,98,29.92,29.71,5,0,5,0.01
2013-6-28,77.5,66.6,55.1,71.3,64.7,54.5,99,94,75,29.73,29.61,6,0,6,0.01
2013-6-29,77.7,66.8,55.1,69.0,62.9,54.5,99,88,63,29.79,29.62,7,0,7,0.01
2013-6-30,85.6,66.5,56.9,74.0,63.8,56.5,99,93,48,29.93,29.78,5,0,6,0.01
2013-7-1,80.2,68.3,63.2,72.0,66.7,62.5,99,95,70,30.03,29.91,6,0,6,0.01
2013-7-2,82.8,70.5,62.5,78.3,69.2,62.0,99,96,74,30.17,30.02,6,0,6,0.01
2013-7-3,84.9,71.8,63.7,73.0,68.2,63.0,99,90,57,30.28,30.17,6,0,7,0.03
2013-7-4,87.1,72.7,64.5,74.3,68.3,64.0,99,88,53,30.30,30.22,5,0,5,0.05
2013-7-5,88.7,74.2,64.7,74.0,68.9,64.0,99,85,53,30.27,30.19,6,0,6,0.00
2013-7-6,89.8,74.7,64.3,74.3,69.9,64.0,99,87,49,30.28,30.14,6,0,6,0.00
2013-7-7,83.3,71.5,66.4,72.0,68.5,66.0,99,91,58,30.19,30.09,6,0,6,0.03
2013-7-8,76.7,69.8,65.2,73.3,68.6,64.5,99,96,76,30.21,30.13,4,0,4,0.00
2013-7-9,77.3,69.7,65.7,76.0,69.2,65.0,99,99,92,30.17,30.09,2,0,2,0.33
2013-7-10,83.3,71.0,64.8,78.3,69.4,64.0,99,95,72,30.09,29.96,7,0,7,0.11
2013-7-11,79.2,66.6,58.2,69.7,63.4,57.5,99,90,56,30.08,29.95,2,0,3,0.00
2013-7-12,73.9,68.1,59.9,66.7,64.3,59.5,99,88,76,30.19,30.09,5,0,6,0.00
2013-7-13,79.5,69.1,60.4,70.5,66.2,60.0,99,91,66,30.38,30.18,4,0,5,0.00
2013-7-14,88.5,74.0,62.2,73.3,67.5,61.5,99,82,53,30.48,30.36,11,0,11,0.00
2013-7-15,90.2,74.0,59.9,73.0,67.6,59.5,99,83,51,30.50,28.47,4,0,4,0.00
2013-7-16,90.4,77.8,65.8,78.0,70.3,61.0,99,82,42,30.48,30.38,4,0,5,0.00
2013-7-17,91.8,76.4,65.3,76.0,70.5,64.0,99,85,51,30.45,30.32,4,0,4,0.00
2013-7-18,93.5,77.7,66.3,77.0,71.7,66.0,99,85,52,30.34,30.19,3,0,3,0.00
2013-7-19,89.7,76.1,66.0,77.0,70.9,65.0,99,87,58,30.20,28.19,6,0,6,0.00
2013-7-20,84.5,73.3,65.3,74.0,69.3,64.0,99,89,63,30.08,29.99,9,0,9,0.02
2013-7-21,85.4,71.8,63.6,72.0,67.6,63.0,99,89,58,30.13,30.03,4,0,4,0.00
2013-7-22,80.3,69.1,61.1,73.0,67.4,60.0,99,96,73,30.08,29.90,5,0,5,0.09
2013-7-23,79.7,69.6,61.9,71.0,66.6,61.0,99,92,68,29.91,29.83,3,0,5,0.01
2013-7-24,73.3,63.6,51.7,63.0,58.1,51.0,98,84,57,30.05,29.85,6,0,7,0.00
2013-7-25,75.8,61.0,46.2,60.0,53.0,45.0,98,79,45,30.16,30.05,6,0,7,0.00
2013-7-26,80.8,62.4,45.4,64.0,54.5,44.0,98,80,41,30.22,30.10,4,0,4,0.00
2013-7-27,71.9,61.8,50.9,71.0,60.8,50.0,99,97,85,30.10,29.99,2,0,2,0.05
2013-7-28,78.5,66.7,55.8,67.0,60.3,53.0,99,83,47,30.11,29.96,7,0,7,0.00
2013-7-29,74.5,60.2,46.4,60.0,54.2,45.0,98,83,54,30.25,30.10,4,0,4,0.00
2013-7-30,76.8,60.7,45.9,63.0,54.9,45.0,98,84,53,30.33,30.23,4,0,4,0.00
2013-7-31,80.9,63.8,49.5,67.0,58.3,48.0,99,85,44,30.25,30.07,4,0,4,0.00
2013-8-1,77.9,67.5,58.5,69.0,63.9,57.0,99,90,57,30.07,29.98,4,0,4,0.01
2013-8-2,76.9,63.9,52.4,68.0,57.1,51.0,99,82,49,30.10,29.97,8,0,8,0.00
2013-8-3,78.0,65.4,55.1,67.0,63.0,54.0,99,93,63,30.07,30.03,6,0,6,0.04
2013-8-4,72.6,59.8,47.9,62.0,54.5,47.0,98,85,54,30.15,30.04,7,0,7,0.00
2013-8-5,74.5,59.9,44.4,60.0,53.0,43.0,98,81,47,30.21,30.10,4,0,4,0.00
2013-8-6,80.4,63.6,48.5,63.0,56.6,48.0,98,81,48,30.16,30.07,8,0,9,0.00
2013-8-7,81.7,68.2,59.3,71.0,65.6,58.0,99,92,69,30.13,30.07,6,0,6,0.04
2013-8-8,83.9,68.8,59.7,76.0,66.9,59.0,99,95,66,30.14,30.05,6,0,6,0.00
2013-8-9,77.3,70.2,63.1,75.0,69.4,62.0,99,99,90,30.11,30.01,4,0,4,0.00
2013-8-10,80.3,67.6,58.9,68.0,62.9,58.0,99,87,59,30.22,30.10,4,0,4,0.00
2013-8-11,82.4,67.0,57.1,71.0,63.5,56.0,99,90,60,30.21,30.14,4,0,4,0.02
2013-8-12,81.5,69.9,62.8,71.0,65.2,62.0,99,87,57,30.18,30.00,4,0,4,0.00
2013-8-13,76.2,66.0,54.2,71.0,62.8,52.0,99,91,73,30.01,29.89,7,0,7,0.04
2013-8-14,67.6,55.4,46.2,57.0,51.6,45.0,97,89,66,30.16,29.99,7,0,7,0.00
2013-8-15,75.3,56.1,41.2,60.0,49.3,40.0,98,82,42,30.28,30.16,5,0,5,0.00
2013-8-16,79.5,60.2,43.5,62.0,53.4,43.0,98,82,47,30.26,30.16,5,0,5,0.00
2013-8-17,75.9,60.5,46.3,63.0,54.1,45.0,98,83,47,30.36,30.25,10,0,10,0.00
2013-8-18,70.1,61.8,56.0,64.0,59.0,55.0,98,92,71,30.32,30.23,6,0,6,0.01
2013-8-19,75.3,64.1,57.4,71.0,62.6,57.0,99,96,81,30.23,30.17,4,0,4,0.03
2013-8-20,81.2,66.0,55.9,69.0,61.2,55.0,99,87,48,30.31,30.18,5,0,5,0.00
2013-8-21,84.4,67.0,51.9,72.0,62.1,51.0,99,87,54,30.32,30.18,4,0,4,0.00
2013-8-22,80.9,68.8,63.3,72.0,66.4,62.0,99,94,68,30.19,30.08,5,0,5,0.00
2013-8-23,79.2,67.6,56.0,69.0,62.6,55.0,99,87,51,30.21,30.08,9,0,9,0.01
2013-8-24,80.2,62.8,49.2,63.0,55.9,48.0,98,82,45,30.41,30.21,5,0,5,0.00
2013-8-25,80.8,62.2,45.4,65.0,56.0,44.0,98,83,47,30.47,30.32,4,0,4,0.00
2013-8-26,83.4,66.7,50.5,69.0,61.3,50.0,99,85,58,30.32,30.11,6,0,6,0.00
2013-8-27,80.3,71.8,67.3,74.0,70.2,66.0,99,96,78,30.12,30.05,3,0,4,0.00
2013-8-28,73.1,68.9,66.4,72.0,68.1,66.0,99,99,99,30.07,29.93,2,0,3,0.00
2013-8-29,83.8,71.2,62.4,77.0,67.5,61.0,100,90,61,30.15,30.00,0,0,0,0.00
2013-8-30,84.8,70.3,60.7,73.0,65.9,60.0,99,88,60,30.13,29.96,0,0,0,0.00
2013-8-31,84.5,70.2,60.9,74.0,66.6,60.0,99,90,52,29.98,29.90,0,0,0,0.00
2013-9-1,76.3,68.8,63.1,75.0,67.8,62.0,99,98,90,29.97,29.90,0,0,0,0.00
2013-9-2,81.6,69.9,61.7,76.0,67.4,61.0,99,93,72,29.93,29.84,0,0,0,0.00
2013-9-3,70.6,63.2,56.4,64.0,59.3,55.0,98,89,62,30.07,29.89,6,0,6,0.00
2013-9-4,74.1,61.1,50.5,61.0,56.2,50.0,98,86,57,30.18,30.07,5,0,5,0.00
2013-9-5,71.6,58.7,49.3,63.0,53.4,48.0,98,85,48,30.21,30.08,7,0,7,0.00
2013-9-6,73.5,53.6,37.0,54.0,45.4,36.0,97,78,37,30.31,30.16,5,0,5,0.00
2013-9-7,75.9,57.1,38.5,59.0,49.4,38.0,98,80,36,30.16,30.00,4,0,4,0.00
2013-9-8,75.7,64.2,54.5,69.0,61.6,54.0,99,92,73,30.11,29.97,6,0,6,0.00
2013-9-9,72.5,60.3,47.9,66.0,57.1,47.0,99,91,68,30.20,30.11,6,0,6,0.00
2013-9-10,86.6,70.3,56.5,77.0,67.0,55.0,99,91,70,30.23,30.12,6,0,7,0.00
2013-9-11,84.3,70.0,62.6,78.0,68.3,62.0,100,96,75,30.25,30.09,7,0,7,0.00
2013-9-12,78.3,66.7,58.8,74.0,65.6,58.0,99,97,82,30.09,29.85,8,0,9,0.00
2013-9-13,61.3,56.0,47.0,60.0,54.9,46.0,98,97,89,30.01,29.84,5,0,6,0.00
2013-9-14,62.6,50.1,40.9,51.0,46.3,40.0,97,88,61,30.16,30.01,5,0,5,0.00
2013-9-15,70.6,52.7,38.5,59.0,48.7,37.0,97,88,52,30.21,30.10,5,0,5,0.00
2013-9-16,67.8,57.7,51.4,59.0,54.9,50.0,98,91,67,30.30,30.09,6,0,6,0.00
2013-9-17,65.6,50.1,38.8,50.0,42.9,38.0,97,80,40,30.41,30.29,2,0,6,0.00
2013-9-18,70.8,49.6,32.5,54.0,44.1,31.0,97,84,46,30.29,30.17,6,0,6,0.00
2013-9-19,72.2,56.3,43.3,65.0,54.6,42.0,98,95,76,30.19,30.09,3,0,4,0.00
2013-9-20,77.5,61.2,49.2,68.0,58.6,48.0,99,92,66,30.10,29.94,5,0,5,0.00
2013-9-21,67.5,59.2,54.6,66.0,58.3,54.0,99,98,97,29.94,29.74,6,0,6,0.00
2013-9-22,60.9,54.0,48.2,56.0,51.7,47.0,97,93,65,30.01,29.81,6,0,6,0.00
2013-9-23,57.7,48.9,36.6,50.0,45.4,36.0,97,88,66,30.13,30.01,6,0,6,0.00
2013-9-24,71.8,48.0,34.9,54.0,43.1,33.0,97,86,49,30.11,29.99,5,0,6,0.00
2013-9-25,69.7,49.7,35.7,59.0,45.8,35.0,97,88,53,30.01,29.95,4,0,5,0.00
2013-9-26,73.6,53.0,37.9,56.0,46.3,37.0,97,82,35,30.10,29.97,5,0,5,0.00
2013-9-27,69.5,52.4,39.6,59.0,48.4,39.0,98,88,62,30.22,30.10,5,0,6,0.00
2013-9-28,65.0,50.5,38.5,59.0,47.2,37.0,98,90,70,30.32,30.19,7,0,7,0.00
2013-9-29,72.6,51.3,36.2,58.0,47.0,35.0,97,87,53,30.19,30.07,4,0,5,0.00
2013-9-30,71.1,55.0,42.5,63.0,52.2,42.0,98,92,63,30.10,30.04,5,0,5,0.00
2013-10-1,73.6,58.0,49.6,65.0,55.5,49.0,98,93,62,30.13,28.07,7,0,7,0.00
2013-10-2,76.9,60.4,48.2,67.0,57.6,47.0,99,92,67,30.15,30.07,6,0,6,0.00
2013-10-3,76.5,62.6,51.3,69.0,60.4,50.0,99,93,73,30.18,30.10,3,0,3,0.00
2013-10-4,77.3,66.6,58.1,69.0,63.6,57.0,99,92,68,30.17,30.10,6,0,7,0.00
2013-10-5,78.9,68.3,60.2,71.0,65.5,59.0,99,93,68,30.17,30.07,6,0,7,0.00
2013-10-6,83.2,69.1,59.7,69.0,62.6,57.0,99,82,42,30.07,29.90,9,0,9,0.00
2013-10-7,66.9,55.2,39.9,66.0,52.4,39.0,98,91,67,30.09,29.79,13,1,13,0.00
2013-10-8,64.6,48.5,35.3,53.0,43.2,33.0,97,84,44,30.31,30.09,6,0,6,0.00
2013-10-9,62.9,46.6,32.2,52.0,39.5,31.0,97,80,42,30.35,28.34,9,0,9,0.00
2013-10-10,61.7,49.3,38.3,52.0,45.2,37.0,97,87,54,30.24,30.10,4,0,4,0.00
2013-10-11,59.2,53.1,48.9,58.0,52.3,48.0,98,97,97,30.11,30.06,6,0,7,0.00
2013-10-12,69.6,60.3,52.6,62.0,57.1,52.0,98,91,74,30.23,30.07,9,0,9,0.00
2013-10-13,62.7,57.0,50.7,61.0,56.0,50.0,98,97,89,30.32,30.20,6,0,6,0.00
2013-10-14,64.1,57.7,54.4,61.0,56.7,53.0,98,97,90,30.32,30.25,3,0,3,0.00
2013-10-15,68.4,57.3,47.1,60.0,54.5,46.0,98,91,69,30.26,30.06,6,0,6,0.00
2013-10-16,61.9,54.9,46.9,61.0,53.9,46.0,98,97,87,30.06,27.99,2,0,2,0.00
2013-10-17,61.6,55.5,48.4,60.0,54.4,47.0,98,97,90,29.94,29.68,11,0,11,0.00
2013-10-18,58.3,48.1,34.7,47.0,44.1,33.0,97,87,59,30.01,29.87,10,1,12,0.00
2013-10-19,52.9,40.7,29.9,50.0,39.5,29.0,97,95,83,29.97,29.77,9,0,9,0.00
2013-10-20,55.7,43.6,31.8,43.0,39.0,31.0,96,85,57,30.03,29.89,8,0,8,0.00
2013-10-21,65.1,42.7,28.0,44.0,35.9,26.0,96,80,39,30.06,29.87,9,0,10,0.00
2013-10-22,49.7,42.0,32.7,46.0,38.5,32.0,97,88,58,29.91,29.81,7,0,8,0.00
2013-10-23,40.7,36.6,32.7,40.0,35.5,32.0,96,95,95,29.85,29.70,6,0,9,0.00
2013-10-24,42.4,35.3,28.4,36.0,32.9,26.0,95,91,69,30.04,29.85,4,1,10,0.00
2013-10-25,44.8,34.2,25.5,39.0,32.1,24.0,96,91,70,30.23,30.04,9,0,9,0.00
2013-10-26,50.2,36.5,21.9,36.0,27.4,21.0,95,72,38,30.18,29.88,12,1,12,0.00
2013-10-27,47.5,38.5,26.5,40.0,33.4,24.0,96,83,57,30.06,29.91,8,1,8,0.00
2013-10-28,57.2,36.1,21.8,41.0,30.2,21.0,96,82,42,30.23,30.05,6,0,6,0.00
2013-10-29,57.9,40.4,26.1,42.0,34.8,24.0,96,83,47,30.33,30.23,5,0,5,0.00
2013-10-30,63.7,45.7,31.0,54.0,42.3,29.0,97,89,67,30.24,30.13,5,0,5,0.00
2013-10-31,62.4,54.8,46.7,61.0,53.9,46.0,98,97,97,30.12,29.63,2,0,2,0.00
2013-11-1,61.0,54.8,40.9,60.0,50.6,40.0,98,87,57,29.72,29.45,12,1,12,0.00
2013-11-2,51.7,43.7,35.9,48.0,41.7,35.0,97,92,75,29.88,29.65,6,0,6,0.00
2013-11-3,46.2,37.1,24.2,42.0,33.4,23.0,96,87,58,30.37,29.88,7,1,7,0.00
2013-11-4,41.0,30.4,18.8,28.0,23.0,18.0,94,75,45,30.48,30.37,8,1,8,0.01
2013-11-5,50.2,38.4,28.6,33.0,30.0,26.0,95,73,41,30.48,30.32,6,0,6,0.00
2013-11-6,68.7,56.8,28.1,53.0,49.2,26.0,97,77,52,30.32,29.95,6,0,6,0.00
2013-11-7,57.9,45.0,35.2,57.0,43.0,29.0,97,92,74,30.05,29.88,7,1,7,0.00
2013-11-8,41.9,35.0,24.8,35.0,30.8,24.0,95,85,60,30.20,29.99,11,1,11,0.00
2013-11-9,53.1,38.0,21.1,35.0,26.9,18.0,95,68,37,30.21,29.93,8,1,8,0.00
2013-11-10,50.9,43.6,34.9,40.0,35.4,31.0,91,73,48,30.17,29.91,9,2,9,0.00
2013-11-11,50.2,38.6,24.7,41.0,30.9,24.0,96,77,41,30.18,29.97,7,0,7,0.00
2013-11-12,38.6,28.2,20.9,37.0,25.7,18.0,96,89,70,30.31,29.99,4,1,4,0.01
2013-11-13,32.9,26.7,21.8,28.0,23.8,21.0,94,87,69,30.38,30.24,6,1,6,0.00
2013-11-14,46.3,31.6,21.6,26.0,22.8,16.0,94,72,32,30.25,30.12,6,0,6,0.00
2013-11-15,52.4,36.4,21.1,43.0,28.0,18.0,96,76,33,30.17,30.10,6,0,6,0.00
2013-11-16,60.1,44.4,28.1,49.0,41.0,26.0,97,89,64,30.23,30.09,6,0,6,0.00
2013-11-17,56.2,51.8,46.5,55.0,50.9,46.0,97,97,97,30.11,29.61,4,0,4,0.00
2013-11-18,53.2,46.9,37.3,52.0,37.6,29.0,97,71,48,29.95,29.66,12,2,12,0.00
2013-11-19,37.3,32.2,20.6,32.0,27.9,18.0,94,83,74,30.30,29.94,7,1,7,0.00
2013-11-20,41.6,28.1,15.4,28.0,18.6,14.0,94,71,33,30.41,30.29,6,1,11,0.00
2013-11-21,48.4,33.4,20.8,39.0,30.3,18.0,96,89,66,30.40,30.23,4,0,4,0.00
2013-11-22,51.9,45.8,36.0,51.0,44.9,35.0,97,97,95,30.23,30.02,6,1,6,0.00
2013-11-23,36.1,28.7,16.9,35.0,25.3,11.0,95,86,62,30.19,29.99,9,2,9,0.00
2013-11-24,16.9,16.7,16.3,14.0,14.0,11.0,84,79,76,30.54,30.19,6,2,6,0.00
2013-11-25,32.9,30.1,28.3,31.0,22.1,14.0,93,71,47,30.31,30.10,2,0,2,0.00
2013-11-26,34.7,31.7,28.8,33.0,30.7,28.0,95,95,90,30.45,30.06,2,0,2,0.00
2013-11-27,33.2,28.7,20.3,32.0,27.2,18.0,95,94,93,30.88,30.04,10,1,10,0.00
2013-12-5,57.7,52.9,0.0,57.0,51.5,-40.0,97,96,96,29.93,5.45,6,0,6,0.01
2013-12-6,43.9,33.9,28.9,43.0,32.7,28.0,96,95,94,30.10,29.91,5,1,5,0.00
2013-12-7,28.9,24.2,17.5,28.0,22.7,16.0,94,94,93,30.95,30.08,0,0,0,0.00
2013-12-16,22.1,20.1,19.4,21.0,18.1,18.0,93,92,85,28.03,27.98,1,0,1,0.00
2013-12-17,32.4,25.7,20.7,31.0,24.2,18.0,95,94,93,27.98,27.84,6,0,6,0.00
2013-12-18,26.4,23.3,15.3,24.0,21.9,14.0,94,93,89,28.08,27.90,9,0,11,0.00
2013-12-19,46.1,30.3,9.6,38.0,26.4,8.0,95,85,64,28.04,27.97,9,0,11,0.00
2013-12-20,46.2,36.9,27.6,45.0,35.1,26.0,97,93,77,27.99,27.89,2,0,2,0.00
2013-12-21,53.3,42.2,37.6,52.0,41.2,37.0,97,96,95,27.90,27.75,2,0,2,0.00
2013-12-22,56.9,52.3,39.7,56.0,51.4,39.0,97,97,96,27.95,27.66,10,0,11,0.00
2013-12-23,52.7,38.4,27.7,52.0,37.2,24.0,97,95,86,28.16,27.93,8,1,8,0.00
2013-12-24,27.7,20.8,7.9,26.0,18.2,8.0,94,87,68,28.36,28.10,10,1,10,0.00
2013-12-25,24.7,16.4,5.2,21.0,13.2,8.0,93,84,62,28.37,28.14,3,0,3,0.00
2013-12-26,31.8,25.2,18.6,29.0,22.3,16.0,94,88,74,28.23,28.05,4,0,11,0.00
2013-12-27,35.7,22.3,9.6,29.0,18.7,8.0,94,86,57,28.25,28.18,9,0,9,0.00
2013-12-28,47.2,31.4,16.7,33.0,26.1,16.0,95,83,54,28.18,28.01,9,0,9,0.00
2013-12-29,40.2,35.8,30.5,39.0,34.7,29.0,96,95,94,28.02,27.59,6,0,6,0.00
2013-12-30,37.4,25.4,18.6,36.0,24.1,18.0,95,93,86,28.07,27.75,11,0,11,0.00
2013-12-31,23.6,20.1,15.9,23.0,18.5,14.0,93,93,93,28.16,27.95,6,0,9,0.00
2014-1-1,36.7,26.7,18.1,29.0,23.5,16.0,94,88,66,28.20,28.00,6,0,6,0.00
2014-1-2,28.7,21.8,10.8,28.0,20.2,8.0,94,93,92,28.00,27.59,11,0,11,0.00